Time;durP1;ratioP1;P1;durP2;ratioP2;P2;SDS_P1;SDS_P2;PMS_P1;PMS_P2;Temp;Humidity;BMP_temperature;BMP_pressure;BME280_temperature;BME280_humidity;BME280_pressure;Samples;Min_cycle;Max_cycle;Signal;HPM_P1;HPM_P2
2022/12/08 00:01:07;;;;;;;19.48;12.90;;;;;;;;;;5023804;28;20060;-48
2022/12/08 00:03:33;;;;;;;24.98;14.57;;;;;;;;;;5023561;28;20045;-49
2022/12/08 00:11:26;;;;;;;20.35;13.40;;;;;;;;;;5025229;28;20053;-44
2022/12/08 00:13:52;;;;;;;26.17;14.55;;;;;;;;;;5025670;28;20041;-45
2022/12/08 00:16:17;;;;;;;22.08;13.23;;;;;;;;;;5025021;28;20048;-45
2022/12/08 00:18:42;;;;;;;21.70;14.05;;;;;;;;;;5026718;28;20037;-47
2022/12/08 00:21:08;;;;;;;21.60;13.23;;;;;;;;;;5023395;28;20486;-46
2022/12/08 00:23:33;;;;;;;23.50;15.10;;;;;;;;;;5025310;28;20041;-49
2022/12/08 00:26:05;;;;;;;21.10;13.32;;;;;;;;;;5024372;28;20041;-45
2022/12/08 00:28:32;;;;;;;19.77;13.65;;;;;;;;;;5025372;28;20067;-47
2022/12/08 00:30:57;;;;;;;19.10;13.18;;;;;;;;;;5026735;28;20049;-49
2022/12/08 00:33:22;;;;;;;28.98;14.50;;;;;;;;;;5021907;28;20857;-49
2022/12/08 00:35:48;;;;;;;31.17;14.88;;;;;;;;;;5023974;28;20056;-45
2022/12/08 00:38:13;;;;;;;26.95;15.25;;;;;;;;;;5026323;28;20083;-46
2022/12/08 00:40:46;;;;;;;27.95;14.30;;;;;;;;;;5023904;28;20046;-48
2022/12/08 00:43:12;;;;;;;30.45;16.48;;;;;;;;;;5022954;28;20132;-49
2022/12/08 00:45:38;;;;;;;27.20;15.10;;;;;;;;;;5025642;28;20141;-48
2022/12/08 00:48:03;;;;;;;27.38;14.55;;;;;;;;;;5023937;28;20484;-45
2022/12/08 00:50:29;;;;;;;27.88;15.95;;;;;;;;;;5024800;28;20045;-52
2022/12/08 00:52:54;;;;;;;23.40;14.63;;;;;;;;;;5024087;28;20091;-52
2022/12/08 00:55:19;;;;;;;26.60;15.10;;;;;;;;;;5025474;28;20032;-49
2022/12/08 00:57:45;;;;;;;22.65;14.95;;;;;;;;;;5024903;28;20067;-50
2022/12/08 01:00:11;;;;;;;24.05;14.65;;;;;;;;;;5023909;28;20028;-49
2022/12/08 01:02:36;;;;;;;26.13;14.85;;;;;;;;;;5023578;28;20103;-43
2022/12/08 01:05:01;;;;;;;26.38;15.32;;;;;;;;;;5024573;28;20041;-41
2022/12/08 01:07:27;;;;;;;28.85;17.67;;;;;;;;;;5025008;28;20026;-46
2022/12/08 01:09:52;;;;;;;25.25;15.77;;;;;;;;;;5025336;28;20079;-42
2022/12/08 01:12:18;;;;;;;27.48;16.50;;;;;;;;;;5024210;28;20120;-42
2022/12/08 01:14:43;;;;;;;25.65;15.65;;;;;;;;;;5028343;28;20021;-41
2022/12/08 01:17:09;;;;;;;19.85;14.75;;;;;;;;;;5022265;28;20045;-41
2022/12/08 01:19:34;;;;;;;22.45;12.38;;;;;;;;;;5026521;28;20040;-41
2022/12/08 01:21:59;;;;;;;20.60;12.80;;;;;;;;;;5021097;28;20080;-44
2022/12/08 01:24:25;;;;;;;23.60;13.90;;;;;;;;;;5023027;28;20041;-41
2022/12/08 01:26:51;;;;;;;24.17;14.02;;;;;;;;;;5024998;28;20038;-42
2022/12/08 01:29:16;;;;;;;18.95;13.20;;;;;;;;;;5024014;28;20084;-43
2022/12/08 01:31:42;;;;;;;17.67;12.10;;;;;;;;;;5026189;28;20041;-44
2022/12/08 01:34:09;;;;;;;18.17;11.73;;;;;;;;;;5023612;28;20029;-42
2022/12/08 01:36:37;;;;;;;18.40;11.43;;;;;;;;;;5023409;28;20048;-41
2022/12/08 01:39:09;;;;;;;17.98;12.27;;;;;;;;;;5022579;28;20024;-41
2022/12/08 01:41:37;;;;;;;24.95;13.80;;;;;;;;;;5021392;28;20052;-45
2022/12/08 01:44:09;;;;;;;17.70;11.98;;;;;;;;;;5025304;28;20037;-42
2022/12/08 01:46:39;;;;;;;;;;;;;;;;;;5010944;28;20141;-45
2022/12/08 01:49:12;;;;;;;16.50;10.73;;;;;;;;;;5004218;28;20370;-44
2022/12/08 01:51:42;;;;;;;15.45;11.45;;;;;;;;;;5009449;28;20046;-41
2022/12/08 01:54:09;;;;;;;19.50;11.90;;;;;;;;;;5015625;28;20034;-43
2022/12/08 01:56:39;;;;;;;15.32;11.93;;;;;;;;;;5020904;28;20962;-41
2022/12/08 01:59:05;;;;;;;15.73;11.48;;;;;;;;;;5023732;28;20037;-41
2022/12/08 02:01:31;;;;;;;26.30;15.40;;;;;;;;;;5023308;28;20067;-42
2022/12/08 02:04:03;;;;;;;20.67;12.23;;;;;;;;;;5025662;28;20450;-41
2022/12/08 02:06:32;;;;;;;27.52;16.30;;;;;;;;;;5012007;28;20053;-42
2022/12/08 02:09:00;;;;;;;26.27;16.30;;;;;;;;;;5003910;28;20498;-41
2022/12/08 02:11:25;;;;;;;30.00;16.15;;;;;;;;;;5015305;28;20391;-45
2022/12/08 02:13:52;;;;;;;25.10;13.88;;;;;;;;;;5021995;28;20044;-41
2022/12/08 02:16:39;;;;;;;27.42;14.45;;;;;;;;;;5023482;28;20133;-42
2022/12/08 02:19:26;;;;;;;22.08;14.15;;;;;;;;;;5023744;28;20041;-41
2022/12/08 02:22:13;;;;;;;21.35;13.18;;;;;;;;;;5022822;28;20052;-41
2022/12/08 02:24:54;;;;;;;21.13;12.23;;;;;;;;;;5025020;28;20084;-43
2022/12/08 02:27:44;;;;;;;21.63;13.25;;;;;;;;;;5025324;28;20494;-41
2022/12/08 02:30:45;;;;;;;21.35;12.27;;;;;;;;;;5023544;28;20057;-41
2022/12/08 02:33:48;;;;;;;18.35;12.23;;;;;;;;;;4984279;28;20035;-45
2022/12/08 02:36:53;;;;;;;20.33;12.77;;;;;;;;;;4984223;28;20112;-44
2022/12/08 02:39:46;;;;;;;23.33;12.85;;;;;;;;;;4984017;28;20038;-42
2022/12/08 02:42:16;;;;;;;;;;;;;;;;;;4987952;28;20042;-41
2022/12/08 02:44:53;;;;;;;19.92;11.65;;;;;;;;;;4986680;28;19925;-41
2022/12/08 02:47:22;;;;;;;20.45;12.57;;;;;;;;;;4986734;28;20055;-41
2022/12/08 02:49:47;;;;;;;22.40;12.88;;;;;;;;;;4988548;28;20053;-42
2022/12/08 02:52:12;;;;;;;21.60;12.70;;;;;;;;;;4971496;28;20043;-45
2022/12/08 02:54:41;;;;;;;22.55;14.85;;;;;;;;;;4986185;28;20049;-42
2022/12/08 02:57:27;;;;;;;21.35;13.18;;;;;;;;;;4970265;28;20038;-42
2022/12/08 03:00:03;;;;;;;50.95;28.20;;;;;;;;;;4966428;28;20035;-43
2022/12/08 03:02:40;;;;;;;30.75;19.63;;;;;;;;;;4985992;28;20106;-41
2022/12/08 03:05:26;;;;;;;33.53;19.17;;;;;;;;;;4987508;28;20038;-41
2022/12/08 03:08:13;;;;;;;24.45;15.35;;;;;;;;;;4989892;28;20092;-42
2022/12/08 03:10:51;;;;;;;20.27;14.50;;;;;;;;;;5021138;28;20096;-42
2022/12/08 03:13:53;;;;;;;30.02;19.95;;;;;;;;;;5003627;28;20395;-41
2022/12/08 03:16:29;;;;;;;20.02;12.82;;;;;;;;;;4948435;28;20047;-42
2022/12/08 03:19:19;;;;;;;20.60;12.35;;;;;;;;;;4946590;28;20043;-42
2022/12/08 03:21:52;;;;;;;16.52;11.52;;;;;;;;;;4947458;28;20516;-41
2022/12/08 03:24:18;;;;;;;18.33;11.88;;;;;;;;;;4946326;28;20227;-41
2022/12/08 03:27:04;;;;;;;16.88;10.52;;;;;;;;;;4948861;28;20040;-42
2022/12/08 03:29:31;;;;;;;16.55;10.07;;;;;;;;;;4944184;28;20031;-42
2022/12/08 03:32:05;;;;;;;19.17;11.00;;;;;;;;;;4948904;28;20043;-45
2022/12/08 03:34:31;;;;;;;18.58;10.18;;;;;;;;;;4944894;28;20031;-41
2022/12/08 03:36:59;;;;;;;19.70;10.07;;;;;;;;;;4975224;28;20039;-41
2022/12/08 03:39:25;;;;;;;16.70;10.63;;;;;;;;;;4968702;28;20034;-43
2022/12/08 03:41:50;;;;;;;15.55;10.48;;;;;;;;;;4967833;28;20464;-44
2022/12/08 03:44:15;;;;;;;13.75;9.93;;;;;;;;;;4966096;28;20114;-44
2022/12/08 03:46:41;;;;;;;13.90;9.38;;;;;;;;;;4954573;28;20047;-41
2022/12/08 03:49:06;;;;;;;15.82;9.82;;;;;;;;;;4946740;28;20822;-42
2022/12/08 03:51:31;;;;;;;13.50;9.95;;;;;;;;;;5003945;28;20041;-41
2022/12/08 03:53:57;;;;;;;14.43;10.35;;;;;;;;;;5001859;28;20022;-42
2022/12/08 03:56:34;;;;;;;15.48;9.10;;;;;;;;;;5018482;28;20564;-42
2022/12/08 03:59:00;;;;;;;12.80;9.63;;;;;;;;;;5023506;28;20490;-43
2022/12/08 04:01:26;;;;;;;14.63;10.15;;;;;;;;;;5028546;28;20130;-41
2022/12/08 04:03:52;;;;;;;21.52;12.27;;;;;;;;;;5026543;28;20017;-44
2022/12/08 04:06:19;;;;;;;20.38;13.00;;;;;;;;;;5027763;28;20041;-41
2022/12/08 04:08:44;;;;;;;21.58;14.35;;;;;;;;;;5019982;28;20026;-41
2022/12/08 04:11:10;;;;;;;19.50;12.98;;;;;;;;;;5024632;28;20037;-41
2022/12/08 04:13:37;;;;;;;17.15;10.88;;;;;;;;;;5025864;28;20053;-41
2022/12/08 04:16:03;;;;;;;15.80;10.88;;;;;;;;;;5022216;28;20034;-41
2022/12/08 04:18:29;;;;;;;18.83;10.15;;;;;;;;;;5027091;28;20034;-42
2022/12/08 04:20:55;;;;;;;15.75;10.15;;;;;;;;;;5025716;28;20040;-42
2022/12/08 04:23:20;;;;;;;12.73;10.10;;;;;;;;;;5026546;28;20029;-43
2022/12/08 04:25:45;;;;;;;15.68;10.25;;;;;;;;;;5018671;28;20516;-44
2022/12/08 04:28:12;;;;;;;14.95;10.18;;;;;;;;;;5007378;28;20080;-41
2022/12/08 04:30:38;;;;;;;13.13;9.68;;;;;;;;;;5010479;28;20604;-41
2022/12/08 04:33:03;;;;;;;15.07;10.20;;;;;;;;;;5027771;28;20125;-43
2022/12/08 04:35:28;;;;;;;14.43;9.82;;;;;;;;;;5024947;28;20048;-40
2022/12/08 04:37:54;;;;;;;15.80;9.93;;;;;;;;;;5024957;28;20528;-47
2022/12/08 04:40:19;;;;;;;13.90;9.23;;;;;;;;;;5025009;28;20106;-42
2022/12/08 04:42:45;;;;;;;17.10;9.35;;;;;;;;;;5024771;28;20037;-42
2022/12/08 04:45:10;;;;;;;16.35;9.48;;;;;;;;;;5025504;28;20081;-44
2022/12/08 04:47:36;;;;;;;15.45;9.48;;;;;;;;;;5024856;28;20117;-41
2022/12/08 04:50:02;;;;;;;11.23;8.70;;;;;;;;;;5020928;28;20526;-40
2022/12/08 04:52:28;;;;;;;13.57;9.13;;;;;;;;;;5017579;28;20022;-42
2022/12/08 04:54:53;;;;;;;12.68;9.27;;;;;;;;;;5024488;28;20095;-41
2022/12/08 04:57:18;;;;;;;14.32;10.18;;;;;;;;;;5025620;28;20052;-42
2022/12/08 04:59:44;;;;;;;11.15;8.80;;;;;;;;;;5023516;28;20455;-45
2022/12/08 05:02:09;;;;;;;13.40;8.73;;;;;;;;;;5027469;28;20037;-42
2022/12/08 05:04:34;;;;;;;13.10;9.18;;;;;;;;;;5024189;28;20057;-41
2022/12/08 05:07:00;;;;;;;12.00;8.75;;;;;;;;;;5025801;28;20041;-42
2022/12/08 05:09:25;;;;;;;13.27;8.75;;;;;;;;;;5021337;28;20025;-42
2022/12/08 05:11:51;;;;;;;11.88;7.65;;;;;;;;;;5022842;28;20045;-41
2022/12/08 05:14:18;;;;;;;11.30;8.43;;;;;;;;;;5024633;28;20029;-42
2022/12/08 05:16:45;;;;;;;13.00;8.00;;;;;;;;;;5024555;28;20041;-42
2022/12/08 05:19:11;;;;;;;11.10;8.02;;;;;;;;;;5024760;28;20044;-46
2022/12/08 05:21:36;;;;;;;11.88;8.70;;;;;;;;;;5023884;28;20062;-42
2022/12/08 05:24:02;;;;;;;10.52;7.85;;;;;;;;;;5020763;28;20037;-45
2022/12/08 05:26:27;;;;;;;11.38;8.15;;;;;;;;;;5026019;28;20034;-44
2022/12/08 05:28:53;;;;;;;11.73;8.35;;;;;;;;;;5022284;28;20036;-42
2022/12/08 05:31:18;;;;;;;14.07;7.68;;;;;;;;;;5023551;28;20049;-43
2022/12/08 05:33:44;;;;;;;10.65;8.30;;;;;;;;;;5026251;28;20478;-42
2022/12/08 05:36:12;;;;;;;13.23;9.07;;;;;;;;;;5007555;28;20039;-45
2022/12/08 05:38:39;;;;;;;27.05;12.65;;;;;;;;;;5003384;28;20032;-42
2022/12/08 05:41:08;;;;;;;18.88;10.50;;;;;;;;;;5013681;28;20034;-42
2022/12/08 05:43:34;;;;;;;11.23;8.32;;;;;;;;;;5021072;28;20041;-43
2022/12/08 05:46:00;;;;;;;11.18;8.75;;;;;;;;;;5024578;28;20041;-43
2022/12/08 05:48:25;;;;;;;15.63;8.57;;;;;;;;;;5023755;28;20077;-46
2022/12/08 05:50:51;;;;;;;12.95;8.70;;;;;;;;;;5020022;28;20406;-43
2022/12/08 05:53:18;;;;;;;11.52;8.13;;;;;;;;;;5024454;28;20482;-43
2022/12/08 05:55:44;;;;;;;14.63;8.30;;;;;;;;;;5020742;28;20505;-41
2022/12/08 05:58:17;;;;;;;12.88;8.40;;;;;;;;;;5025616;28;20029;-44
2022/12/08 06:00:44;;;;;;;12.60;8.68;;;;;;;;;;5024902;28;20095;-49
2022/12/08 06:03:14;;;;;;;12.18;8.38;;;;;;;;;;5025340;28;20021;-43
2022/12/08 06:05:40;;;;;;;9.57;7.95;;;;;;;;;;5021352;28;20041;-41
2022/12/08 06:08:06;;;;;;;11.32;7.70;;;;;;;;;;5017715;28;20030;-49
2022/12/08 06:10:32;;;;;;;9.27;7.63;;;;;;;;;;5010392;28;20048;-45
2022/12/08 06:12:57;;;;;;;8.55;6.85;;;;;;;;;;5017060;28;20053;-45
2022/12/08 06:15:22;;;;;;;9.68;7.22;;;;;;;;;;5023061;28;20068;-42
2022/12/08 06:17:48;;;;;;;8.65;6.78;;;;;;;;;;5020665;28;20046;-43
2022/12/08 06:20:14;;;;;;;7.47;5.68;;;;;;;;;;5019774;28;20041;-42
2022/12/08 06:22:39;;;;;;;9.30;6.30;;;;;;;;;;5025183;28;20026;-41
2022/12/08 06:25:05;;;;;;;13.95;8.10;;;;;;;;;;5023590;28;20359;-43
2022/12/08 06:27:32;;;;;;;13.35;9.77;;;;;;;;;;5024637;28;20033;-44
2022/12/08 06:29:58;;;;;;;17.52;9.60;;;;;;;;;;5023925;28;20030;-44
2022/12/08 06:32:23;;;;;;;17.70;9.95;;;;;;;;;;5024290;28;20041;-42
2022/12/08 06:34:49;;;;;;;15.10;9.75;;;;;;;;;;5024191;28;20026;-42
2022/12/08 06:37:14;;;;;;;17.35;9.13;;;;;;;;;;5020215;28;20085;-42
2022/12/08 06:39:39;;;;;;;15.60;9.35;;;;;;;;;;5020901;28;20588;-44
2022/12/08 06:44:50;;;;;;;14.98;8.73;;;;;;;;;;5021155;28;20548;-42
2022/12/08 06:47:15;;;;;;;19.10;10.77;;;;;;;;;;5005655;28;20073;-43
2022/12/08 06:49:41;;;;;;;19.75;12.68;;;;;;;;;;5001427;28;20030;-42
2022/12/08 06:52:06;;;;;;;26.92;13.73;;;;;;;;;;5023355;28;20053;-45
2022/12/08 06:54:31;;;;;;;27.95;13.23;;;;;;;;;;5027814;28;20034;-43
2022/12/08 06:56:57;;;;;;;27.95;14.18;;;;;;;;;;5026746;28;20069;-45
2022/12/08 06:59:24;;;;;;;26.27;13.82;;;;;;;;;;5024998;28;20475;-43
2022/12/08 07:01:50;;;;;;;32.95;14.30;;;;;;;;;;5027711;28;20041;-45
2022/12/08 07:04:16;;;;;;;24.42;12.77;;;;;;;;;;5029022;28;20032;-45
2022/12/08 07:06:41;;;;;;;19.83;12.82;;;;;;;;;;5029620;28;20128;-45
2022/12/08 07:09:06;;;;;;;27.80;12.68;;;;;;;;;;5025860;28;20025;-42
2022/12/08 07:11:32;;;;;;;20.77;12.15;;;;;;;;;;5029422;28;20037;-41
2022/12/08 07:13:57;;;;;;;26.83;14.43;;;;;;;;;;5028138;28;20025;-44
2022/12/08 07:16:23;;;;;;;18.58;12.25;;;;;;;;;;5022688;28;20561;-50
2022/12/08 07:18:48;;;;;;;21.08;14.40;;;;;;;;;;5023720;28;20092;-45
2022/12/08 07:21:15;;;;;;;22.63;16.40;;;;;;;;;;5027021;28;20479;-46
2022/12/08 07:23:41;;;;;;;18.95;13.88;;;;;;;;;;5025437;28;20650;-44
2022/12/08 07:26:10;;;;;;;22.95;15.45;;;;;;;;;;5029025;28;20046;-43
2022/12/08 07:28:37;;;;;;;20.33;13.95;;;;;;;;;;5023384;28;20490;-42
2022/12/08 07:31:04;;;;;;;20.65;13.32;;;;;;;;;;5027520;28;20414;-43
2022/12/08 07:33:30;;;;;;;20.42;13.57;;;;;;;;;;5026534;28;20021;-42
2022/12/08 07:36:02;;;;;;;18.10;12.40;;;;;;;;;;5028066;28;20995;-47
2022/12/08 07:38:27;;;;;;;21.17;11.38;;;;;;;;;;5027345;28;20029;-43
2022/12/08 07:40:53;;;;;;;15.20;10.65;;;;;;;;;;5025534;28;20120;-43
2022/12/08 07:43:19;;;;;;;12.30;9.15;;;;;;;;;;5026879;28;20490;-42
2022/12/08 07:45:45;;;;;;;11.95;8.60;;;;;;;;;;5028023;28;20065;-43
2022/12/08 07:48:11;;;;;;;13.93;8.35;;;;;;;;;;5028024;28;20069;-42
2022/12/08 07:50:36;;;;;;;13.55;8.13;;;;;;;;;;5027754;28;20127;-45
2022/12/08 07:53:02;;;;;;;13.20;9.57;;;;;;;;;;5024918;28;20034;-42
2022/12/08 07:55:27;;;;;;;19.35;11.27;;;;;;;;;;5024608;28;20516;-48
2022/12/08 07:57:53;;;;;;;12.57;8.65;;;;;;;;;;5027253;28;20033;-45
2022/12/08 08:00:19;;;;;;;14.35;8.90;;;;;;;;;;5024646;28;20450;-47
2022/12/08 08:02:44;;;;;;;14.90;9.45;;;;;;;;;;5027568;28;20461;-45
2022/12/08 08:05:13;;;;;;;12.50;8.00;;;;;;;;;;5025344;28;20482;-42
2022/12/08 08:07:42;;;;;;;69.35;36.95;;;;;;;;;;5027209;28;20547;-49
2022/12/08 08:10:08;;;;;;;26.73;12.68;;;;;;;;;;5028156;28;20103;-43
2022/12/08 08:12:33;;;;;;;30.42;15.15;;;;;;;;;;5023420;28;20533;-44
2022/12/08 08:15:00;;;;;;;21.42;11.75;;;;;;;;;;5027613;28;20025;-42
2022/12/08 08:17:25;;;;;;;26.17;15.15;;;;;;;;;;5026077;28;20046;-43
2022/12/08 08:19:51;;;;;;;26.13;14.10;;;;;;;;;;5026792;28;20452;-44
2022/12/08 08:22:16;;;;;;;21.50;12.90;;;;;;;;;;5025843;28;20399;-42
2022/12/08 08:24:41;;;;;;;24.65;11.13;;;;;;;;;;5028353;28;20031;-43
2022/12/08 08:27:07;;;;;;;17.27;10.73;;;;;;;;;;5020164;28;20097;-48
2022/12/08 08:29:32;;;;;;;16.77;10.55;;;;;;;;;;5023130;28;20069;-43
2022/12/08 08:31:58;;;;;;;21.77;13.10;;;;;;;;;;5025089;28;20045;-43
2022/12/08 08:34:24;;;;;;;31.17;13.82;;;;;;;;;;5026682;28;20032;-44
2022/12/08 08:36:49;;;;;;;30.65;16.08;;;;;;;;;;5025987;28;20401;-43
2022/12/08 08:39:14;;;;;;;19.42;11.32;;;;;;;;;;5025389;28;20112;-42
2022/12/08 08:41:40;;;;;;;11.73;9.07;;;;;;;;;;5023561;28;20481;-46
2022/12/08 08:44:06;;;;;;;38.28;19.67;;;;;;;;;;5020985;28;20068;-51
2022/12/08 08:46:31;;;;;;;27.77;16.70;;;;;;;;;;5026078;28;20037;-45
2022/12/08 08:48:57;;;;;;;22.75;14.40;;;;;;;;;;5021318;28;20053;-48
2022/12/08 08:51:23;;;;;;;65.05;30.45;;;;;;;;;;5024584;28;20049;-49
2022/12/08 08:53:48;;;;;;;40.38;22.98;;;;;;;;;;5026308;28;20091;-43
2022/12/08 08:56:20;;;;;;;28.83;19.42;;;;;;;;;;5024716;28;20041;-45
2022/12/08 08:58:51;;;;;;;24.35;13.73;;;;;;;;;;5025765;28;20030;-44
2022/12/08 09:01:19;;;;;;;18.02;12.43;;;;;;;;;;5024318;28;20045;-45
2022/12/08 09:03:45;;;;;;;30.67;18.10;;;;;;;;;;5022403;28;20501;-44
2022/12/08 09:06:12;;;;;;;21.67;14.20;;;;;;;;;;5025994;28;20077;-47
2022/12/08 09:08:38;;;;;;;18.70;11.45;;;;;;;;;;5025640;28;20091;-43
2022/12/08 09:11:03;;;;;;;34.28;12.82;;;;;;;;;;5025284;28;20524;-44
2022/12/08 09:13:28;;;;;;;28.73;14.68;;;;;;;;;;5022435;28;20030;-43
2022/12/08 09:15:54;;;;;;;30.52;15.10;;;;;;;;;;5023861;28;20046;-43
2022/12/08 09:18:19;;;;;;;38.42;15.10;;;;;;;;;;5026809;28;20796;-45
2022/12/08 09:20:45;;;;;;;30.08;13.85;;;;;;;;;;5024995;28;20428;-44
2022/12/08 09:23:10;;;;;;;32.47;12.25;;;;;;;;;;5028572;28;20037;-42
2022/12/08 09:25:35;;;;;;;25.35;14.40;;;;;;;;;;5024712;28;20060;-43
2022/12/08 09:28:01;;;;;;;30.10;17.35;;;;;;;;;;5023238;28;20025;-44
2022/12/08 09:30:26;;;;;;;29.38;13.93;;;;;;;;;;5024619;28;20574;-43
2022/12/08 09:32:51;;;;;;;49.90;25.23;;;;;;;;;;5024047;28;20045;-45
2022/12/08 09:35:17;;;;;;;36.13;21.38;;;;;;;;;;5027398;28;20026;-42
2022/12/08 09:37:42;;;;;;;33.33;19.65;;;;;;;;;;5025332;28;20072;-45
2022/12/08 09:40:14;;;;;;;32.80;19.55;;;;;;;;;;5025070;28;20033;-44
2022/12/08 09:43:04;;;;;;;28.55;17.70;;;;;;;;;;5025879;28;20044;-42
2022/12/08 09:45:33;;;;;;;33.10;17.83;;;;;;;;;;5040549;28;20096;-42
2022/12/08 09:48:05;;;;;;;30.17;16.15;;;;;;;;;;5024463;28;20108;-44
2022/12/08 09:50:39;;;;;;;35.75;19.73;;;;;;;;;;5026217;28;20046;-43
2022/12/08 09:53:10;;;;;;;38.40;21.38;;;;;;;;;;5030804;28;20032;-43
2022/12/08 09:55:51;;;;;;;47.58;25.95;;;;;;;;;;5028738;28;20490;-43
2022/12/08 09:58:43;;;;;;;39.95;25.40;;;;;;;;;;5026742;28;20029;-42
2022/12/08 10:01:09;;;;;;;43.20;24.50;;;;;;;;;;5027853;28;20060;-43
2022/12/08 10:03:35;;;;;;;17.30;11.20;;;;;;;;;;5029490;28;20041;-43
2022/12/08 10:06:10;;;;;;;12.38;9.07;;;;;;;;;;5027180;28;20072;-45
2022/12/08 10:09:13;;;;;;;12.32;5.60;;;;;;;;;;5022493;28;20062;-42
2022/12/08 10:11:46;;;;;;;11.25;6.03;;;;;;;;;;5026566;28;20136;-42
2022/12/08 10:14:11;;;;;;;9.75;6.28;;;;;;;;;;5028873;28;20033;-42
2022/12/08 10:16:40;;;;;;;12.80;9.13;;;;;;;;;;5028352;28;20493;-42
2022/12/08 10:19:12;;;;;;;15.13;10.07;;;;;;;;;;5026709;28;20155;-43
2022/12/08 10:21:39;;;;;;;18.58;8.60;;;;;;;;;;5023623;28;20472;-42
2022/12/08 10:24:15;;;;;;;23.83;9.43;;;;;;;;;;5029212;28;20101;-43
2022/12/08 10:26:43;;;;;;;16.05;7.75;;;;;;;;;;5024870;28;20774;-42
2022/12/08 10:29:12;;;;;;;12.90;6.75;;;;;;;;;;5023403;28;20108;-43
2022/12/08 10:31:38;;;;;;;11.63;7.10;;;;;;;;;;5026896;28;20029;-42
2022/12/08 10:40:00;;;;;;;11.23;6.90;;;;;;;;;;5050155;28;20639;-41
2022/12/08 10:42:32;;;;;;;19.80;7.47;;;;;;;;;;4995172;28;20038;-43
2022/12/08 10:45:20;;;;;;;12.85;7.22;;;;;;;;;;4998984;28;20030;-42
2022/12/08 10:48:02;;;;;;;12.93;7.72;;;;;;;;;;4997849;28;20061;-44
2022/12/08 10:50:27;;;;;;;16.20;8.52;;;;;;;;;;4998570;28;20435;-42
2022/12/08 10:52:55;;;;;;;26.27;11.95;;;;;;;;;;4995911;28;20023;-44
2022/12/08 10:55:20;;;;;;;26.98;13.52;;;;;;;;;;5000516;28;20610;-43
2022/12/08 10:57:49;;;;;;;29.58;14.82;;;;;;;;;;4996945;28;20100;-42
2022/12/08 11:00:26;;;;;;;45.42;16.45;;;;;;;;;;4999145;28;20109;-42
2022/12/08 11:03:01;;;;;;;35.33;19.70;;;;;;;;;;4998872;28;20392;-42
2022/12/08 11:05:31;;;;;;;55.03;22.67;;;;;;;;;;4997427;28;20042;-42
2022/12/08 11:07:57;;;;;;;50.60;22.75;;;;;;;;;;4996626;28;20502;-42
2022/12/08 11:10:33;;;;;;;49.47;22.90;;;;;;;;;;4997430;28;20054;-42
2022/12/08 11:13:19;;;;;;;47.03;22.67;;;;;;;;;;4994216;28;20018;-42
2022/12/08 11:15:45;;;;;;;45.63;22.60;;;;;;;;;;5002123;28;20065;-42
2022/12/08 11:18:29;;;;;;;47.25;24.50;;;;;;;;;;4994127;28;20026;-51
2022/12/08 11:21:09;;;;;;;35.85;17.83;;;;;;;;;;4994840;28;20038;-42
2022/12/08 11:23:36;;;;;;;31.02;12.82;;;;;;;;;;4995950;28;20655;-42
2022/12/08 11:26:16;;;;;;;18.92;10.10;;;;;;;;;;4995684;28;20038;-43
2022/12/08 11:28:42;;;;;;;20.65;10.90;;;;;;;;;;4995590;28;20035;-42
2022/12/08 11:31:43;;;;;;;20.40;12.48;;;;;;;;;;4992010;28;20053;-47
2022/12/08 11:34:19;;;;;;;34.15;15.52;;;;;;;;;;4946898;28;20031;-43
2022/12/08 11:36:46;;;;;;;16.27;9.80;;;;;;;;;;4957868;28;20048;-43
2022/12/08 11:39:12;;;;;;;17.02;8.70;;;;;;;;;;4957575;28;20496;-42
2022/12/08 11:41:41;;;;;;;12.75;7.18;;;;;;;;;;4956809;28;20054;-42
2022/12/08 11:44:24;;;;;;;13.23;8.15;;;;;;;;;;4958644;28;20145;-45
2022/12/08 11:46:57;;;;;;;13.70;9.43;;;;;;;;;;4960023;28;20043;-42
2022/12/08 11:49:33;;;;;;;14.40;8.13;;;;;;;;;;4953411;28;20059;-42
2022/12/08 11:52:04;;;;;;;37.03;16.88;;;;;;;;;;4941230;29;20079;-43
2022/12/08 11:54:35;;;;;;;34.33;18.10;;;;;;;;;;4928372;29;20079;-43
2022/12/08 11:57:04;;;;;;;34.78;17.17;;;;;;;;;;4946455;29;20493;-42
2022/12/08 11:59:33;;;;;;;45.92;19.33;;;;;;;;;;4942296;29;20035;-44
2022/12/08 12:02:00;;;;;;;40.20;21.63;;;;;;;;;;4944316;28;20079;-44
2022/12/08 12:04:36;;;;;;;36.42;18.08;;;;;;;;;;4944422;29;20130;-43
2022/12/08 12:07:32;;;;;;;54.00;30.63;;;;;;;;;;4944415;29;20051;-42
2022/12/08 12:10:01;;;;;;;46.80;28.65;;;;;;;;;;4960216;28;20042;-43
2022/12/08 12:12:33;;;;;;;39.20;25.25;;;;;;;;;;4984476;28;20039;-43
2022/12/08 12:15:29;;;;;;;36.63;24.70;;;;;;;;;;4980256;28;20479;-44
2022/12/08 12:18:02;;;;;;;28.55;14.82;;;;;;;;;;4988421;28;20069;-42
2022/12/08 12:20:34;;;;;;;16.77;9.55;;;;;;;;;;4983320;28;20121;-43
2022/12/08 12:23:05;;;;;;;17.75;9.23;;;;;;;;;;4982965;28;20056;-42
2022/12/08 12:25:32;;;;;;;14.50;8.73;;;;;;;;;;4981856;28;20511;-45
2022/12/08 12:28:04;;;;;;;12.18;8.38;;;;;;;;;;4982840;28;20022;-46
2022/12/08 12:30:48;;;;;;;13.63;9.10;;;;;;;;;;4980676;28;20133;-42
2022/12/08 12:33:14;;;;;;;15.07;9.60;;;;;;;;;;4983319;28;20074;-43
2022/12/08 12:35:42;;;;;;;19.80;11.18;;;;;;;;;;4978181;28;21014;-43
2022/12/08 12:41:06;;;;;;;17.25;13.00;;;;;;;;;;4980813;28;20042;-42
2022/12/08 12:43:35;;;;;;;15.88;10.52;;;;;;;;;;4985301;28;20503;-45
2022/12/08 12:46:22;;;;;;;14.15;9.63;;;;;;;;;;4982257;28;20395;-49
2022/12/08 12:48:48;;;;;;;13.82;9.15;;;;;;;;;;4986117;28;20065;-46
2022/12/08 12:51:38;;;;;;;18.15;9.50;;;;;;;;;;4982711;28;20038;-43
2022/12/08 12:54:25;;;;;;;18.55;9.88;;;;;;;;;;4982533;28;20101;-46
2022/12/08 12:57:15;;;;;;;12.95;10.25;;;;;;;;;;4983205;28;20400;-46
2022/12/08 12:59:46;;;;;;;26.50;13.60;;;;;;;;;;4983012;28;20042;-42
2022/12/08 13:02:23;;;;;;;25.07;14.67;;;;;;;;;;4981610;28;20113;-46
2022/12/08 13:05:01;;;;;;;25.48;16.38;;;;;;;;;;4986196;28;20031;-44
2022/12/08 13:07:34;;;;;;;40.70;22.50;;;;;;;;;;4985804;28;20042;-43
2022/12/08 13:10:12;;;;;;;19.95;12.75;;;;;;;;;;4981183;28;20031;-43
2022/12/08 13:12:37;;;;;;;20.55;12.77;;;;;;;;;;4984814;28;20135;-45
2022/12/08 13:15:05;;;;;;;22.73;14.68;;;;;;;;;;4979580;28;20046;-46
2022/12/08 13:17:34;;;;;;;25.73;15.82;;;;;;;;;;4977970;28;20015;-44
2022/12/08 13:20:03;;;;;;;18.83;12.15;;;;;;;;;;4981071;28;20038;-46
2022/12/08 13:22:57;;;;;;;18.38;11.93;;;;;;;;;;4978638;28;20046;-44
2022/12/08 13:25:38;;;;;;;28.90;17.60;;;;;;;;;;4983654;28;20050;-43
2022/12/08 13:28:20;;;;;;;89.63;42.05;;;;;;;;;;4986129;28;20061;-48
2022/12/08 13:30:51;;;;;;;111.70;50.58;;;;;;;;;;4976853;28;20047;-44
2022/12/08 13:33:31;;;;;;;29.48;17.17;;;;;;;;;;4980593;28;20026;-44
2022/12/08 13:36:26;;;;;;;21.17;11.45;;;;;;;;;;4984179;28;20046;-46
2022/12/08 13:38:56;;;;;;;14.57;9.27;;;;;;;;;;4984777;28;20046;-44
2022/12/08 13:41:48;;;;;;;30.20;14.68;;;;;;;;;;4980404;28;21183;-46
2022/12/08 13:44:21;;;;;;;26.83;15.45;;;;;;;;;;4943007;29;20051;-44
2022/12/08 13:46:52;;;;;;;37.05;17.05;;;;;;;;;;4943826;28;20047;-44
2022/12/08 13:49:24;;;;;;;42.75;17.42;;;;;;;;;;4941725;29;20082;-43
2022/12/08 13:51:53;;;;;;;24.30;14.30;;;;;;;;;;4944587;28;20445;-45
2022/12/08 13:54:46;;;;;;;30.50;18.38;;;;;;;;;;4945140;28;20031;-43
2022/12/08 13:57:33;;;;;;;25.73;15.35;;;;;;;;;;4940441;28;20045;-43
2022/12/08 14:00:01;;;;;;;28.05;13.95;;;;;;;;;;4944857;28;20507;-44
2022/12/08 14:02:40;;;;;;;14.52;9.80;;;;;;;;;;4934604;29;20043;-48
2022/12/08 14:05:06;;;;;;;15.90;10.27;;;;;;;;;;4942234;28;20043;-43
2022/12/08 14:07:32;;;;;;;21.63;13.68;;;;;;;;;;4941634;28;20034;-45
2022/12/08 14:10:02;;;;;;;21.38;14.70;;;;;;;;;;4942349;28;20095;-43
2022/12/08 14:12:29;;;;;;;22.67;14.40;;;;;;;;;;4923072;29;20222;-42
2022/12/08 14:15:05;;;;;;;24.13;11.48;;;;;;;;;;4924768;29;20047;-43
2022/12/08 14:17:32;;;;;;;19.77;11.77;;;;;;;;;;4942395;28;20044;-42
2022/12/08 14:20:12;;;;;;;19.45;13.50;;;;;;;;;;4942280;28;20036;-43
2022/12/08 14:22:39;;;;;;;17.33;11.48;;;;;;;;;;4981441;28;20108;-42
2022/12/08 14:25:11;;;;;;;20.90;12.35;;;;;;;;;;4983385;28;20034;-42
2022/12/08 14:27:37;;;;;;;30.27;16.58;;;;;;;;;;4980915;28;20030;-49
2022/12/08 14:30:12;;;;;;;25.08;16.75;;;;;;;;;;4980681;28;20403;-47
2022/12/08 14:32:38;;;;;;;34.15;16.88;;;;;;;;;;4981154;28;20057;-44
2022/12/08 14:35:06;;;;;;;21.40;13.43;;;;;;;;;;4980707;28;20062;-43
2022/12/08 14:37:35;;;;;;;17.85;10.95;;;;;;;;;;4981673;28;20030;-44
2022/12/08 14:40:06;;;;;;;15.07;9.77;;;;;;;;;;4981322;28;20023;-45
2022/12/08 14:42:46;;;;;;;14.13;8.15;;;;;;;;;;4981724;28;20045;-46
2022/12/08 14:45:14;;;;;;;10.18;7.28;;;;;;;;;;4980004;28;20031;-48
2022/12/08 14:47:40;;;;;;;14.80;7.72;;;;;;;;;;4977238;28;20509;-46
2022/12/08 14:50:38;;;;;;;11.05;6.88;;;;;;;;;;4979719;28;20042;-42
2022/12/08 14:53:11;;;;;;;11.57;7.63;;;;;;;;;;4941429;28;20049;-41
2022/12/08 14:55:37;;;;;;;14.23;9.30;;;;;;;;;;4939300;28;20047;-45